createdAt,value
2023-04-24T00:00:28.083Z,10.10
2023-04-24T00:02:58.210Z,10.10
2023-04-24T00:05:26.704Z,10.10
2023-04-24T00:07:55.310Z,10.00
2023-04-24T00:10:23.505Z,10.00
2023-04-24T00:12:52.924Z,10.00
2023-04-24T00:15:20.951Z,10.00
2023-04-24T00:17:49.042Z,10.00
2023-04-24T00:20:17.164Z,9.90
2023-04-24T00:22:45.228Z,9.90
2023-04-24T00:25:13.240Z,9.90
2023-04-24T00:27:41.316Z,9.90
2023-04-24T00:30:11.723Z,9.90
2023-04-24T00:32:39.924Z,9.90
2023-04-24T00:35:08.860Z,9.90
2023-04-24T00:37:37.119Z,9.90
2023-04-24T00:40:06.297Z,9.90
2023-04-24T00:42:34.385Z,9.90
2023-04-24T00:45:02.456Z,9.90
2023-04-24T00:47:32.128Z,9.90
2023-04-24T00:50:00.180Z,9.90
2023-04-24T00:52:29.590Z,9.90
2023-04-24T00:54:57.627Z,9.90
2023-04-24T00:57:26.475Z,9.90
2023-04-24T00:59:54.809Z,9.80
2023-04-24T01:02:23.636Z,9.80
2023-04-24T01:04:53.240Z,9.80
2023-04-24T01:07:22.285Z,9.80
2023-04-24T01:09:53.264Z,9.80
2023-04-24T01:12:21.410Z,9.80
2023-04-24T01:14:49.465Z,9.80
2023-04-24T01:17:17.570Z,9.80
2023-04-24T01:19:46.286Z,9.80
2023-04-24T01:22:17.340Z,9.80
2023-04-24T01:24:45.546Z,9.80
2023-04-24T01:27:14.063Z,9.80
2023-04-24T01:29:42.347Z,9.90
2023-04-24T01:32:11.769Z,9.90
2023-04-24T01:34:39.860Z,9.90
2023-04-24T01:37:07.933Z,9.90
2023-04-24T01:39:37.376Z,9.90
2023-04-24T01:42:06.432Z,9.90
2023-04-24T01:44:35.221Z,9.90
2023-04-24T01:47:05.742Z,9.90
2023-04-24T01:49:33.948Z,9.90
2023-04-24T01:52:02.045Z,9.90
2023-04-24T01:54:32.486Z,9.90
2023-04-24T01:57:03.093Z,9.90
2023-04-24T01:59:31.306Z,9.90
2023-04-24T02:01:59.458Z,9.90
2023-04-24T02:04:27.615Z,9.90
2023-04-24T02:06:56.019Z,9.90
2023-04-24T02:09:24.100Z,10.00
2023-04-24T02:11:52.511Z,10.00
2023-04-24T02:14:21.921Z,10.00
2023-04-24T02:16:50.179Z,10.00
2023-04-24T02:19:18.306Z,9.90
2023-04-24T02:21:46.373Z,9.90
2023-04-24T02:24:14.442Z,10.00
2023-04-24T02:26:43.048Z,10.00
2023-04-24T02:29:11.125Z,10.00
2023-04-24T02:31:40.552Z,10.00
2023-04-24T02:34:08.642Z,10.00
2023-04-24T02:36:36.710Z,10.00
2023-04-24T02:39:04.925Z,10.00
2023-04-24T02:41:34.212Z,10.10
2023-04-24T02:44:02.393Z,10.10
2023-04-24T02:46:30.981Z,10.10
2023-04-24T02:49:00.442Z,10.20
2023-04-24T02:51:28.801Z,10.20
2023-04-24T02:53:56.930Z,10.30
2023-04-24T02:56:24.991Z,10.30
2023-04-24T02:58:53.586Z,10.40
2023-04-24T03:01:21.780Z,10.50
2023-04-24T03:03:50.741Z,10.50
2023-04-24T03:06:20.347Z,10.60
2023-04-24T03:08:48.432Z,10.60
2023-04-24T03:11:16.486Z,10.60
2023-04-24T03:13:44.561Z,10.70
2023-04-24T03:16:12.736Z,10.70
2023-04-24T03:18:40.803Z,10.80
2023-04-24T03:21:10.142Z,10.90
2023-04-24T03:23:39.599Z,10.90
2023-04-24T03:26:07.668Z,10.90
2023-04-24T03:28:38.010Z,10.90
2023-04-24T03:31:06.664Z,10.90
2023-04-24T03:33:37.645Z,11.00
2023-04-24T03:36:06.455Z,11.00
2023-04-24T03:38:42.413Z,11.00
2023-04-24T03:41:26.707Z,11.00
2023-04-24T03:44:05.488Z,11.10
2023-04-24T03:46:33.657Z,11.10
2023-04-24T03:49:04.000Z,11.10
2023-04-24T03:51:36.507Z,11.10
2023-04-24T03:54:14.952Z,11.20
2023-04-24T03:56:43.240Z,11.20
2023-04-24T03:59:11.583Z,11.20
2023-04-24T04:01:43.900Z,11.20
2023-04-24T04:04:16.124Z,11.20
2023-04-24T04:06:47.538Z,11.20
2023-04-24T04:09:17.271Z,11.20
2023-04-24T04:11:45.431Z,11.20
2023-04-24T04:14:14.049Z,11.20
2023-04-24T04:16:45.839Z,11.30
2023-04-24T04:19:14.274Z,11.30
2023-04-24T04:21:42.394Z,11.30
2023-04-24T04:24:31.485Z,11.30
2023-04-24T04:27:01.588Z,11.30
2023-04-24T04:29:33.813Z,11.40
2023-04-24T04:32:03.655Z,11.40
2023-04-24T04:34:32.533Z,11.40
2023-04-24T04:37:02.113Z,11.40
2023-04-24T04:40:07.286Z,11.40
2023-04-24T04:42:43.633Z,11.50
2023-04-24T04:45:13.068Z,11.50
2023-04-24T04:47:57.815Z,11.50
2023-04-24T04:50:26.077Z,11.50
2023-04-24T04:52:59.093Z,11.50
2023-04-24T04:55:34.342Z,11.50
2023-04-24T04:58:09.629Z,11.50
2023-04-24T05:00:38.660Z,11.40
2023-04-24T05:03:21.109Z,11.50
2023-04-24T05:05:55.762Z,11.50
2023-04-24T05:08:27.494Z,11.50
2023-04-24T05:10:57.683Z,11.50
2023-04-24T05:13:39.138Z,11.50
2023-04-24T05:16:16.903Z,11.60
2023-04-24T05:18:45.067Z,11.60
2023-04-24T05:21:16.141Z,11.70
2023-04-24T05:23:47.968Z,11.90
2023-04-24T05:26:23.949Z,12.00
2023-04-24T05:28:52.410Z,12.20
2023-04-24T05:31:20.894Z,12.30
2023-04-24T05:33:49.033Z,12.50
2023-04-24T05:36:17.192Z,12.70
2023-04-24T05:38:45.378Z,12.70
2023-04-24T05:41:13.440Z,12.60
2023-04-24T05:43:42.867Z,12.60
2023-04-24T05:46:11.106Z,12.60
2023-04-24T05:48:40.794Z,12.60
2023-04-24T05:51:08.932Z,12.60
2023-04-24T05:53:37.020Z,12.60
2023-04-24T05:56:05.225Z,12.70
2023-04-24T05:58:33.961Z,12.60
2023-04-24T06:01:03.574Z,12.70
2023-04-24T06:03:32.065Z,12.60
2023-04-24T06:06:00.246Z,12.70
2023-04-24T06:08:28.463Z,12.80
2023-04-24T06:10:56.552Z,13.00
2023-04-24T06:13:24.631Z,13.30
2023-04-24T06:16:17.408Z,13.50
2023-04-24T06:18:51.557Z,13.90
2023-04-24T06:21:21.096Z,14.20
2023-04-24T06:23:50.280Z,14.70
2023-04-24T06:26:18.639Z,15.10
2023-04-24T06:28:46.775Z,15.20
2023-04-24T06:31:14.850Z,15.10
2023-04-24T06:33:44.728Z,15.10
2023-04-24T06:36:12.820Z,15.20
2023-04-24T06:38:41.115Z,15.00
2023-04-24T06:41:09.375Z,15.10
2023-04-24T06:43:37.429Z,15.10
2023-04-24T06:46:05.598Z,15.50
2023-04-24T06:48:33.698Z,15.80
2023-04-24T06:51:03.177Z,15.90
2023-04-24T06:53:31.240Z,16.40
2023-04-24T06:55:59.314Z,16.40
2023-04-24T06:58:27.504Z,16.50
2023-04-24T07:00:55.601Z,16.40
2023-04-24T07:03:23.803Z,16.60
2023-04-24T07:05:52.371Z,17.20
2023-04-24T07:08:23.088Z,17.30
2023-04-24T07:10:52.479Z,17.20
2023-04-24T07:13:20.634Z,17.40
2023-04-24T07:15:50.156Z,17.30
2023-04-24T07:18:18.231Z,17.80
2023-04-24T07:20:46.477Z,18.00
2023-04-24T07:23:14.611Z,18.30
2023-04-24T07:25:44.085Z,18.70
2023-04-24T07:28:12.144Z,19.10
2023-04-24T07:30:40.242Z,19.00
2023-04-24T07:33:08.387Z,19.30
2023-04-24T07:35:37.086Z,19.40
2023-04-24T07:38:05.148Z,19.50
2023-04-24T07:40:33.243Z,19.40
2023-04-24T07:43:02.891Z,19.30
2023-04-24T07:45:32.244Z,19.80
2023-04-24T07:48:00.350Z,19.30
2023-04-24T07:50:28.547Z,19.20
2023-04-24T07:52:56.605Z,19.30
2023-04-24T07:55:27.284Z,19.70
2023-04-24T07:57:56.246Z,19.70
2023-04-24T08:00:25.667Z,20.30
2023-04-24T08:02:53.818Z,19.40
2023-04-24T08:05:22.096Z,19.50
2023-04-24T08:07:51.444Z,20.10
2023-04-24T08:10:19.554Z,20.20
2023-04-24T08:12:47.661Z,21.00
2023-04-24T08:15:15.750Z,21.40
2023-04-24T08:17:45.228Z,21.10
2023-04-24T08:20:14.768Z,21.50
2023-04-24T08:22:42.997Z,21.30
2023-04-24T08:25:11.277Z,21.20
2023-04-24T08:27:40.052Z,21.10
2023-04-24T08:30:09.062Z,20.60
2023-04-24T08:32:38.572Z,20.00
2023-04-24T08:35:10.288Z,20.30
2023-04-24T08:37:38.471Z,20.40
2023-04-24T08:40:10.194Z,20.70
2023-04-24T08:42:38.455Z,20.70
2023-04-24T08:45:07.507Z,21.00
2023-04-24T08:47:35.634Z,21.10
2023-04-24T08:50:04.282Z,20.60
2023-04-24T08:52:34.391Z,20.50
2023-04-24T08:55:02.475Z,20.50
2023-04-24T08:57:30.580Z,20.80
2023-04-24T08:59:58.682Z,21.60
2023-04-24T09:02:28.576Z,22.00
2023-04-24T09:04:56.724Z,22.40
2023-04-24T09:07:24.970Z,22.10
2023-04-24T09:09:54.525Z,22.20
2023-04-24T09:12:22.593Z,22.00
2023-04-24T09:14:51.065Z,21.40
2023-04-24T09:17:19.211Z,21.40
2023-04-24T09:19:47.279Z,21.40
2023-04-24T09:22:15.377Z,21.40
2023-04-24T09:24:43.522Z,21.30
2023-04-24T09:27:13.661Z,21.60
2023-04-24T09:29:42.049Z,21.70
2023-04-24T09:32:23.787Z,21.80
2023-04-24T09:34:52.389Z,21.90
2023-04-24T09:37:30.201Z,21.80
2023-04-24T09:40:11.210Z,21.80
2023-04-24T09:42:40.624Z,21.90
2023-04-24T09:45:15.588Z,22.20
2023-04-24T09:47:44.313Z,21.70
2023-04-24T09:50:14.366Z,21.60
2023-04-24T09:52:46.394Z,21.10
2023-04-24T09:55:19.510Z,21.10
2023-04-24T09:57:52.726Z,21.20
2023-04-24T10:00:23.668Z,21.20
2023-04-24T10:03:01.267Z,21.70
2023-04-24T10:05:30.207Z,21.90
2023-04-24T10:08:08.530Z,20.70
2023-04-24T10:10:39.364Z,20.90
2023-04-24T10:13:08.993Z,21.00
2023-04-24T10:15:37.086Z,20.70
2023-04-24T10:18:06.468Z,20.70
2023-04-24T10:20:35.282Z,20.60
2023-04-24T10:23:03.319Z,20.70
2023-04-24T10:25:32.689Z,20.80
2023-04-24T10:28:01.444Z,20.90
2023-04-24T10:30:31.787Z,20.90
2023-04-24T10:33:00.015Z,20.70
2023-04-24T10:35:28.248Z,21.00
2023-04-24T10:37:58.378Z,21.50
2023-04-24T10:40:28.543Z,22.00
2023-04-24T10:42:58.685Z,20.80
2023-04-24T10:45:27.407Z,20.50
2023-04-24T10:48:00.579Z,20.60
2023-04-24T10:50:29.392Z,20.50
2023-04-24T10:53:07.732Z,20.00
2023-04-24T10:55:43.191Z,20.10
2023-04-24T10:58:11.532Z,20.20
2023-04-24T11:00:40.128Z,20.30
2023-04-24T11:03:25.520Z,20.50
2023-04-24T11:05:55.630Z,20.80
2023-04-24T11:08:28.333Z,21.80
2023-04-24T11:11:04.675Z,22.40
2023-04-24T11:14:05.254Z,22.40
2023-04-24T11:16:35.205Z,22.20
2023-04-24T11:19:06.872Z,22.00
2023-04-24T11:21:41.273Z,22.10
2023-04-24T11:24:26.408Z,22.00
2023-04-24T11:26:54.877Z,22.00
2023-04-24T11:29:24.094Z,21.90
2023-04-24T11:31:53.260Z,21.40
2023-04-24T11:34:22.960Z,21.20
2023-04-24T11:36:51.097Z,21.20
2023-04-24T11:39:20.255Z,21.10
2023-04-24T11:41:48.310Z,20.80
2023-04-24T11:44:16.390Z,20.40
2023-04-24T11:46:44.636Z,20.40
2023-04-24T11:49:12.754Z,20.30
2023-04-24T11:51:51.442Z,20.30
2023-04-24T11:54:21.471Z,20.20
2023-04-24T11:56:49.549Z,20.30
2023-04-24T11:59:17.609Z,20.40
2023-04-24T12:01:46.751Z,20.90
2023-04-24T12:04:14.977Z,21.10
2023-04-24T12:06:59.466Z,21.30
2023-04-24T12:09:27.554Z,21.10
2023-04-24T12:11:56.775Z,20.90
2023-04-24T12:14:24.970Z,20.90
2023-04-24T12:16:53.164Z,21.00
2023-04-24T12:19:23.022Z,21.10
2023-04-24T12:22:03.095Z,21.10
2023-04-24T12:24:31.872Z,21.10
2023-04-24T12:26:59.978Z,21.20
2023-04-24T12:29:28.033Z,21.30
2023-04-24T12:31:56.467Z,21.10
2023-04-24T12:34:26.026Z,21.00
2023-04-24T12:36:54.098Z,20.90
2023-04-24T12:39:25.803Z,20.70
2023-04-24T12:41:58.183Z,20.50
2023-04-24T12:44:35.344Z,19.60
2023-04-24T12:47:03.640Z,18.80
2023-04-24T12:49:32.554Z,18.50
2023-04-24T12:52:00.624Z,17.60
2023-04-24T12:54:34.197Z,17.30
2023-04-24T12:57:02.513Z,16.20
2023-04-24T12:59:30.661Z,15.60
2023-04-24T13:01:58.737Z,15.10
2023-04-24T13:04:26.966Z,14.90
2023-04-24T13:06:55.048Z,15.10
2023-04-24T13:09:23.154Z,14.70
2023-04-24T13:11:52.576Z,14.90
2023-04-24T13:14:20.718Z,14.80
2023-04-24T13:16:48.876Z,15.10
2023-04-24T13:19:17.490Z,15.40
2023-04-24T13:21:45.534Z,15.70
2023-04-24T13:24:14.146Z,15.70
2023-04-24T13:26:42.244Z,15.50
2023-04-24T13:29:11.948Z,15.50
2023-04-24T13:31:40.128Z,15.30
2023-04-24T13:34:08.363Z,15.40
2023-04-24T13:36:36.537Z,15.40
2023-04-24T13:39:05.419Z,15.30
2023-04-24T13:41:34.089Z,15.50
2023-04-24T13:44:02.314Z,15.70
2023-04-24T13:46:31.844Z,15.70
2023-04-24T13:48:59.940Z,15.90
2023-04-24T13:51:28.916Z,16.10
2023-04-24T13:53:57.202Z,16.40
2023-04-24T13:56:25.444Z,16.40
2023-04-24T13:58:55.547Z,16.80
2023-04-24T14:01:25.834Z,16.80
2023-04-24T14:03:55.573Z,17.00
2023-04-24T14:06:24.152Z,17.20
2023-04-24T14:08:52.416Z,17.40
2023-04-24T14:11:20.809Z,16.90
2023-04-24T14:13:48.894Z,16.90
2023-04-24T14:16:17.022Z,17.30
2023-04-24T14:18:45.087Z,17.60
2023-04-24T14:21:14.554Z,17.40
2023-04-24T14:23:43.034Z,17.60
2023-04-24T14:26:11.432Z,17.70
2023-04-24T14:28:39.476Z,18.00
2023-04-24T14:31:07.645Z,18.30
2023-04-24T14:33:35.956Z,18.50
2023-04-24T14:36:05.464Z,18.70
2023-04-24T14:38:34.872Z,18.60
2023-04-24T14:41:10.565Z,18.50
2023-04-24T14:43:41.427Z,18.30
2023-04-24T14:46:09.681Z,18.50
2023-04-24T14:48:37.863Z,18.20
2023-04-24T14:51:06.324Z,18.20
2023-04-24T14:53:36.525Z,18.20
2023-04-24T14:56:04.867Z,18.20
2023-04-24T14:58:32.910Z,18.10
2023-04-24T15:01:00.977Z,18.10
2023-04-24T15:03:30.607Z,18.20
2023-04-24T15:05:58.991Z,18.30
2023-04-24T15:08:27.064Z,18.50
2023-04-24T15:10:56.707Z,18.60
2023-04-24T15:13:24.753Z,18.20
2023-04-24T15:15:52.824Z,17.90
2023-04-24T15:18:20.872Z,17.90
2023-04-24T15:20:48.951Z,17.90
2023-04-24T15:23:17.005Z,17.60
2023-04-24T15:25:45.087Z,17.40
2023-04-24T15:28:14.661Z,17.50
2023-04-24T15:30:42.732Z,18.00
2023-04-24T15:33:10.864Z,18.10
2023-04-24T15:35:39.022Z,18.00
2023-04-24T15:38:07.069Z,18.00
2023-04-24T15:40:35.405Z,17.70
2023-04-24T15:43:03.505Z,17.50
2023-04-24T15:45:33.297Z,17.40
2023-04-24T15:48:01.391Z,17.20
2023-04-24T15:50:29.485Z,17.20
2023-04-24T15:52:57.535Z,17.00
2023-04-24T15:55:25.630Z,17.00
2023-04-24T15:57:53.683Z,16.90
2023-04-24T16:00:21.972Z,16.80
2023-04-24T16:02:51.732Z,16.80
2023-04-24T16:05:22.869Z,16.70
2023-04-24T16:07:51.732Z,16.60
2023-04-24T16:10:19.956Z,16.50
2023-04-24T16:12:48.015Z,16.40
2023-04-24T16:15:16.156Z,16.40
2023-04-24T16:17:44.389Z,16.60
2023-04-24T16:20:14.973Z,16.70
2023-04-24T16:22:43.031Z,16.60
2023-04-24T16:25:11.375Z,16.70
2023-04-24T16:27:39.508Z,16.70
2023-04-24T16:30:08.794Z,16.60
2023-04-24T16:32:36.895Z,16.40
2023-04-24T16:35:05.457Z,16.30
2023-04-24T16:37:34.919Z,16.40
2023-04-24T16:40:04.733Z,16.30
2023-04-24T16:42:32.812Z,16.10
2023-04-24T16:45:00.880Z,16.10
2023-04-24T16:47:28.969Z,16.10
2023-04-24T16:49:57.065Z,15.80
2023-04-24T16:52:25.123Z,15.30
2023-04-24T16:54:54.548Z,14.80
2023-04-24T16:57:23.045Z,14.60
2023-04-24T16:59:51.123Z,14.60
2023-04-24T17:02:19.194Z,14.50
2023-04-24T17:04:48.216Z,14.30
2023-04-24T17:07:17.657Z,14.30
2023-04-24T17:09:45.753Z,14.10
2023-04-24T17:12:15.177Z,13.90
2023-04-24T17:14:43.247Z,13.60
2023-04-24T17:17:11.449Z,13.50
2023-04-24T17:19:39.734Z,13.40
2023-04-24T17:22:07.881Z,13.10
2023-04-24T17:24:35.963Z,13.10
2023-04-24T17:27:13.954Z,13.00
2023-04-24T17:29:44.223Z,13.20
2023-04-24T17:32:12.391Z,13.20
2023-04-24T17:34:40.852Z,13.10
2023-04-24T17:37:08.919Z,12.90
2023-04-24T17:39:37.047Z,12.80
2023-04-24T17:42:05.415Z,12.60
2023-04-24T17:44:33.550Z,12.50
2023-04-24T17:47:04.015Z,12.60
2023-04-24T17:49:32.121Z,12.60
2023-04-24T17:52:00.170Z,12.60
2023-04-24T17:54:28.220Z,12.60
2023-04-24T17:56:56.335Z,12.60
2023-04-24T17:59:24.533Z,12.60
2023-04-24T18:01:53.144Z,12.60
2023-04-24T18:04:22.857Z,12.60
2023-04-24T18:06:51.060Z,12.50
2023-04-24T18:09:21.110Z,12.50
2023-04-24T18:11:49.962Z,12.40
2023-04-24T18:14:18.037Z,12.40
2023-04-24T18:16:46.091Z,12.30
2023-04-24T18:19:14.138Z,12.30
2023-04-24T18:21:43.564Z,12.20
2023-04-24T18:24:11.668Z,12.10
2023-04-24T18:26:39.715Z,12.10
2023-04-24T18:29:07.794Z,12.00
2023-04-24T18:31:35.938Z,11.80
2023-04-24T18:34:04.094Z,11.60
2023-04-24T18:36:32.787Z,11.40
2023-04-24T18:39:02.458Z,11.50
2023-04-24T18:41:30.577Z,11.30
2023-04-24T18:43:59.462Z,11.40
2023-04-24T18:46:27.585Z,11.40
2023-04-24T18:48:55.925Z,11.30
2023-04-24T18:51:23.982Z,11.30
2023-04-24T18:53:52.057Z,11.30
2023-04-24T18:56:21.516Z,11.20
2023-04-24T18:58:50.020Z,11.20
2023-04-24T19:01:18.532Z,11.20
2023-04-24T19:03:46.948Z,11.00
2023-04-24T19:06:15.123Z,11.00
2023-04-24T19:08:44.889Z,10.90
2023-04-24T19:11:13.024Z,11.00
2023-04-24T19:13:42.446Z,10.80
2023-04-24T19:16:10.552Z,10.80
2023-04-24T19:18:38.658Z,10.80
2023-04-24T19:21:06.794Z,10.80
2023-04-24T19:23:36.686Z,10.60
2023-04-24T19:26:04.777Z,10.70
2023-04-24T19:28:32.841Z,10.70
2023-04-24T19:31:02.268Z,10.60
2023-04-24T19:33:30.372Z,10.40
2023-04-24T19:35:58.439Z,10.40
2023-04-24T19:38:26.514Z,10.40
2023-04-24T19:40:54.650Z,10.50
2023-04-24T19:43:22.699Z,10.40
2023-04-24T19:45:51.615Z,10.30
2023-04-24T19:48:21.146Z,10.40
2023-04-24T19:50:49.243Z,10.40
2023-04-24T19:53:17.275Z,10.30
2023-04-24T19:55:45.345Z,10.20
2023-04-24T19:58:13.420Z,10.10
2023-04-24T20:00:41.863Z,10.10
2023-04-24T20:03:15.803Z,10.10
2023-04-24T20:05:51.274Z,10.10
2023-04-24T20:08:19.500Z,10.10
2023-04-24T20:10:47.588Z,10.20
2023-04-24T20:13:15.638Z,10.10
2023-04-24T20:15:43.756Z,10.20
2023-04-24T20:18:11.836Z,10.00
2023-04-24T20:20:41.759Z,10.10
2023-04-24T20:23:11.484Z,10.00
2023-04-24T20:25:39.574Z,9.90
2023-04-24T20:28:07.652Z,9.90
2023-04-24T20:30:35.922Z,10.00
2023-04-24T20:33:04.103Z,9.90
2023-04-24T20:35:32.270Z,9.80
2023-04-24T20:38:01.728Z,9.60
2023-04-24T20:40:31.826Z,9.60
2023-04-24T20:42:59.960Z,9.40
2023-04-24T20:45:28.244Z,9.40
2023-04-24T20:47:56.324Z,9.50
2023-04-24T20:50:25.413Z,9.40
2023-04-24T20:52:53.478Z,9.50
2023-04-24T20:55:21.557Z,9.60
2023-04-24T20:57:50.991Z,9.60
2023-04-24T21:00:19.096Z,9.40
2023-04-24T21:02:47.240Z,9.60
2023-04-24T21:05:15.556Z,9.40
2023-04-24T21:07:43.633Z,9.50
2023-04-24T21:10:13.323Z,9.40
2023-04-24T21:12:41.439Z,9.50
2023-04-24T21:15:11.782Z,9.50
2023-04-24T21:17:40.174Z,9.50
2023-04-24T21:20:10.799Z,9.50
2023-04-24T21:22:38.863Z,9.40
2023-04-24T21:25:08.532Z,9.40
2023-04-24T21:27:36.719Z,9.40
2023-04-24T21:30:05.639Z,9.40
2023-04-24T21:32:35.181Z,9.20
2023-04-24T21:35:03.268Z,9.30
2023-04-24T21:37:33.655Z,9.40
2023-04-24T21:40:02.487Z,9.40
2023-04-24T21:42:30.561Z,9.40
2023-04-24T21:44:58.624Z,9.40
2023-04-24T21:47:26.817Z,9.40
2023-04-24T21:49:56.266Z,9.30
2023-04-24T21:52:24.424Z,9.40
2023-04-24T21:54:52.530Z,9.40
2023-04-24T21:57:20.778Z,9.50
2023-04-24T21:59:48.834Z,9.40
2023-04-24T22:02:16.980Z,9.40
2023-04-24T22:04:45.538Z,9.40
2023-04-24T22:07:15.643Z,9.40
2023-04-24T22:09:43.705Z,9.30
2023-04-24T22:12:11.804Z,9.30
2023-04-24T22:14:39.858Z,9.30
2023-04-24T22:17:09.668Z,9.40
2023-04-24T22:19:37.737Z,9.30
2023-04-24T22:22:05.814Z,9.20
2023-04-24T22:24:35.324Z,9.30
2023-04-24T22:27:03.782Z,9.40
2023-04-24T22:29:32.097Z,9.40
2023-04-24T22:32:00.263Z,9.40
2023-04-24T22:34:28.432Z,9.20
2023-04-24T22:36:56.517Z,9.20
2023-04-24T22:39:24.567Z,9.10
2023-04-24T22:41:54.047Z,9.30
2023-04-24T22:44:22.243Z,9.20
2023-04-24T22:46:51.759Z,9.30
2023-04-24T22:49:20.461Z,9.30
2023-04-24T22:51:49.065Z,9.40
2023-04-24T22:54:17.123Z,9.40
2023-04-24T22:56:45.250Z,9.40
2023-04-24T22:59:14.656Z,9.40
2023-04-24T23:01:42.730Z,9.30
2023-04-24T23:04:10.905Z,9.40
2023-04-24T23:06:39.080Z,9.50
2023-04-24T23:09:07.153Z,9.40
2023-04-24T23:11:35.228Z,9.30
2023-04-24T23:14:03.987Z,9.40
2023-04-24T23:16:37.704Z,9.30
2023-04-24T23:19:05.886Z,9.30
2023-04-24T23:21:34.253Z,9.40
2023-04-24T23:24:02.313Z,9.40
2023-04-24T23:26:30.395Z,9.30
2023-04-24T23:28:58.445Z,9.20
2023-04-24T23:31:26.555Z,9.30
2023-04-24T23:33:56.149Z,9.40
2023-04-24T23:36:24.224Z,9.40
2023-04-24T23:38:52.284Z,9.40
2023-04-24T23:41:20.775Z,9.40
2023-04-24T23:43:48.977Z,9.40
2023-04-24T23:46:17.264Z,9.40
2023-04-24T23:48:45.627Z,9.40
2023-04-24T23:51:15.053Z,9.30
2023-04-24T23:53:43.097Z,9.20
2023-04-24T23:56:11.178Z,9.20
2023-04-24T23:58:39.253Z,9.30
